Time;durP1;ratioP1;P1;durP2;ratioP2;P2;SDS_P1;SDS_P2;PMS_P1;PMS_P2;Temp;Humidity;BMP_temperature;BMP_pressure;BME280_temperature;BME280_humidity;BME280_pressure;Samples;Min_cycle;Max_cycle;Signal;HPM_P1;HPM_P2
2022/04/10 00:01:34;;;;;;;5.00;4.50;;;7.60;94.50;;;;;;5050937;28;20173;-69
2022/04/10 00:04:00;;;;;;;5.47;4.97;;;7.90;94.60;;;;;;5052657;28;20204;-69
2022/04/10 00:06:27;;;;;;;5.53;4.80;;;8.00;94.50;;;;;;5053029;28;20411;-68
2022/04/10 00:08:53;;;;;;;5.60;4.60;;;8.10;94.50;;;;;;5033951;28;20416;-69
2022/04/10 00:11:19;;;;;;;4.80;4.50;;;8.00;94.40;;;;;;5051553;28;20408;-69
2022/04/10 00:13:44;;;;;;;7.50;4.90;;;7.90;94.40;;;;;;5051630;28;20792;-69
2022/04/10 00:16:10;;;;;;;4.87;4.40;;;7.90;94.30;;;;;;5052356;28;20173;-68
2022/04/10 00:18:37;;;;;;;5.10;4.60;;;7.90;94.50;;;;;;5051556;28;20452;-69
2022/04/10 00:21:05;;;;;;;5.40;4.90;;;7.90;94.60;;;;;;5052436;28;20504;-68
2022/04/10 00:23:31;;;;;;;6.37;4.67;;;7.90;94.50;;;;;;5052111;28;20459;-71
2022/04/10 00:25:58;;;;;;;11.40;5.60;;;7.40;94.20;;;;;;5051914;28;20498;-68
2022/04/10 00:28:24;;;;;;;5.30;4.80;;;7.90;94.50;;;;;;5052387;28;20439;-68
2022/04/10 00:30:49;;;;;;;5.30;4.90;;;8.00;94.70;;;;;;5051640;28;20196;-68
2022/04/10 00:33:15;;;;;;;6.27;5.00;;;7.90;94.60;;;;;;5052039;28;20836;-68
2022/04/10 00:35:41;;;;;;;7.43;5.00;;;7.90;94.60;;;;;;5050388;28;20538;-68
2022/04/10 00:38:07;;;;;;;6.23;4.47;;;8.10;94.70;;;;;;5051850;28;20181;-68
2022/04/10 00:40:33;;;;;;;9.37;5.50;;;8.00;94.80;;;;;;5051751;28;20633;-71
2022/04/10 00:42:58;;;;;;;5.40;4.90;;;7.80;94.60;;;;;;5051109;28;20629;-68
2022/04/10 00:45:24;;;;;;;5.87;5.37;;;7.80;94.60;;;;;;5052341;28;20431;-68
2022/04/10 00:47:50;;;;;;;7.30;5.83;;;7.80;94.70;;;;;;5050355;28;20419;-69
2022/04/10 00:50:18;;;;;;;5.77;5.27;;;7.30;94.60;;;;;;5051922;28;20461;-68
2022/04/10 00:52:45;;;;;;;6.40;5.20;;;7.80;94.90;;;;;;5051356;28;20407;-68
2022/04/10 00:55:12;;;;;;;5.53;5.00;;;7.90;95.00;;;;;;5052014;28;20430;-68
2022/04/10 00:57:38;;;;;;;8.40;5.40;;;7.80;95.00;;;;;;5050183;28;20412;-69
2022/04/10 01:00:11;;;;;;;10.77;5.87;;;7.80;95.00;;;;;;5051670;28;20423;-68
2022/04/10 01:02:38;;;;;;;5.90;5.40;;;7.80;95.00;;;;;;5051486;28;20177;-71
2022/04/10 01:05:04;;;;;;;7.00;5.33;;;7.80;95.10;;;;;;5051866;28;20479;-68
2022/04/10 01:07:30;;;;;;;7.03;4.63;;;7.70;95.10;;;;;;5051828;28;20496;-68
2022/04/10 01:09:56;;;;;;;9.07;5.60;;;7.70;95.30;;;;;;5051232;28;20409;-68
2022/04/10 01:12:23;;;;;;;8.70;5.63;;;7.80;95.40;;;;;;5050225;28;20430;-68
2022/04/10 01:14:50;;;;;;;5.80;5.30;;;7.80;95.70;;;;;;5050938;28;20414;-69
2022/04/10 01:17:16;;;;;;;8.67;5.43;;;7.50;95.80;;;;;;5051985;28;20419;-68
2022/04/10 01:19:43;;;;;;;6.13;5.50;;;7.70;95.90;;;;;;5051141;28;20407;-69
2022/04/10 01:22:11;;;;;;;7.93;5.87;;;7.50;95.90;;;;;;5051966;28;20446;-68
2022/04/10 01:24:39;;;;;;;7.80;5.40;;;7.50;96.00;;;;;;5051229;28;20454;-71
2022/04/10 01:27:05;;;;;;;6.83;5.50;;;7.20;96.20;;;;;;5051843;28;20465;-68
2022/04/10 01:29:32;;;;;;;7.90;5.10;;;7.50;96.00;;;;;;5051988;28;20411;-68
2022/04/10 01:31:58;;;;;;;6.10;4.80;;;7.60;96.10;;;;;;5049775;28;20520;-68
2022/04/10 01:34:24;;;;;;;8.20;6.43;;;7.50;96.10;;;;;;5050594;28;20408;-68
2022/04/10 01:36:49;;;;;;;5.67;5.07;;;7.50;96.20;;;;;;5050765;28;20418;-68
2022/04/10 01:39:15;;;;;;;8.23;5.60;;;7.50;96.10;;;;;;5051697;28;20410;-68
2022/04/10 01:41:42;;;;;;;6.20;5.40;;;7.60;96.20;;;;;;5050731;28;20538;-69
2022/04/10 01:44:09;;;;;;;9.37;6.23;;;7.10;96.00;;;;;;5049888;28;21026;-68
2022/04/10 01:46:36;;;;;;;6.90;5.10;;;7.20;96.00;;;;;;5050959;28;20422;-71
2022/04/10 01:49:05;;;;;;;7.80;5.23;;;7.00;96.30;;;;;;5050785;28;20887;-68
2022/04/10 01:51:30;;;;;;;7.17;5.70;;;7.50;96.30;;;;;;5055400;28;20424;-68
2022/04/10 01:53:57;;;;;;;5.77;5.27;;;7.40;96.20;;;;;;5054176;28;20938;-68
2022/04/10 01:56:23;;;;;;;7.13;5.30;;;7.40;96.10;;;;;;5055150;28;20172;-68
2022/04/10 01:58:53;;;;;;;7.73;5.00;;;7.40;96.10;;;;;;5054361;28;20427;-68
2022/04/10 02:01:21;;;;;;;11.90;5.27;;;7.60;96.20;;;;;;5055029;28;20426;-68
2022/04/10 02:03:47;;;;;;;6.03;4.90;;;7.10;95.90;;;;;;5054437;28;20459;-68
2022/04/10 02:06:14;;;;;;;5.87;5.13;;;7.50;96.10;;;;;;5055139;28;20431;-68
2022/04/10 02:08:43;;;;;;;7.87;4.97;;;7.40;96.00;;;;;;5053100;28;20464;-72
2022/04/10 02:11:14;;;;;;;6.50;5.10;;;7.60;96.00;;;;;;5053586;28;20872;-68
2022/04/10 02:13:40;;;;;;;6.40;5.07;;;7.60;95.90;;;;;;5054678;28;20453;-71
2022/04/10 02:16:10;;;;;;;6.00;5.40;;;7.60;95.90;;;;;;5055016;28;20509;-68
2022/04/10 02:18:35;;;;;;;10.93;5.73;;;7.50;96.10;;;;;;5055004;28;20935;-68
2022/04/10 02:21:01;;;;;;;8.13;5.60;;;7.50;96.10;;;;;;5053905;28;20607;-69
2022/04/10 02:23:27;;;;;;;6.60;5.07;;;7.60;96.30;;;;;;5054599;28;20259;-69
2022/04/10 02:25:54;;;;;;;5.83;4.83;;;7.50;96.20;;;;;;5054068;28;20430;-69
2022/04/10 02:28:19;;;;;;;6.00;5.37;;;7.50;96.20;;;;;;5053539;28;20227;-68
2022/04/10 02:30:45;;;;;;;9.77;5.10;;;7.20;95.90;;;;;;5053737;28;20497;-69
2022/04/10 02:33:11;;;;;;;7.50;5.50;;;7.50;95.80;;;;;;5054784;28;20183;-68
2022/04/10 02:35:36;;;;;;;5.90;4.53;;;7.70;95.80;;;;;;5054731;28;20244;-69
2022/04/10 02:38:02;;;;;;;6.87;4.87;;;7.50;95.70;;;;;;5053795;28;20185;-68
2022/04/10 02:40:28;;;;;;;5.30;4.80;;;7.50;95.50;;;;;;5054500;28;20240;-68
2022/04/10 02:42:54;;;;;;;8.13;5.20;;;7.70;95.60;;;;;;5053027;28;20426;-70
2022/04/10 02:45:19;;;;;;;7.23;5.00;;;7.50;95.50;;;;;;5052887;28;20189;-68
2022/04/10 02:47:45;;;;;;;7.13;5.03;;;7.50;95.60;;;;;;5053505;28;20191;-69
2022/04/10 02:50:13;;;;;;;9.60;5.00;;;7.10;95.60;;;;;;5054172;28;20264;-68
2022/04/10 02:52:40;;;;;;;9.37;5.10;;;7.60;95.70;;;;;;5054152;28;20582;-68
2022/04/10 02:55:07;;;;;;;5.77;5.27;;;7.40;95.60;;;;;;5036012;28;20914;-68
2022/04/10 02:57:34;;;;;;;5.47;4.67;;;7.30;95.70;;;;;;5054630;28;20462;-68
2022/04/10 02:59:59;;;;;;;7.90;5.57;;;7.40;96.00;;;;;;5051863;28;20534;-68
2022/04/10 03:02:25;;;;;;;6.57;5.03;;;7.50;95.90;;;;;;5052788;28;20501;-69
2022/04/10 03:04:51;;;;;;;7.33;5.20;;;7.10;95.80;;;;;;5053004;28;20622;-68
2022/04/10 03:07:17;;;;;;;8.47;5.20;;;7.40;96.00;;;;;;5052650;28;20619;-68
2022/04/10 03:09:42;;;;;;;9.77;5.60;;;7.30;96.10;;;;;;5053216;28;20186;-71
2022/04/10 03:12:08;;;;;;;5.30;4.80;;;7.40;96.00;;;;;;5052271;28;20180;-69
2022/04/10 03:14:35;;;;;;;7.80;5.40;;;7.40;96.00;;;;;;5053973;28;20258;-68
2022/04/10 03:17:00;;;;;;;6.20;5.30;;;7.40;96.00;;;;;;5051719;28;21250;-68
2022/04/10 03:19:26;;;;;;;5.93;5.30;;;7.40;96.00;;;;;;5053601;28;20425;-69
2022/04/10 03:21:52;;;;;;;6.40;4.87;;;7.40;95.90;;;;;;5053168;28;20224;-69
2022/04/10 03:24:18;;;;;;;6.60;6.00;;;7.40;95.80;;;;;;5052331;28;20524;-69
2022/04/10 03:26:44;;;;;;;6.97;5.20;;;7.50;95.70;;;;;;5053217;28;20187;-71
2022/04/10 03:29:11;;;;;;;9.33;5.10;;;7.50;95.70;;;;;;5052250;28;20195;-68
2022/04/10 03:31:37;;;;;;;6.23;5.10;;;7.50;95.50;;;;;;5053494;28;20271;-68
2022/04/10 03:34:03;;;;;;;5.57;4.90;;;7.50;95.50;;;;;;5052766;28;20978;-68
2022/04/10 03:36:28;;;;;;;17.70;5.33;;;7.40;95.30;;;;;;5053490;28;20180;-68
2022/04/10 03:38:54;;;;;;;8.53;5.73;;;7.50;95.30;;;;;;5052177;28;20260;-68
2022/04/10 03:41:20;;;;;;;7.43;5.20;;;7.30;95.20;;;;;;5052984;28;20181;-68
2022/04/10 03:43:46;;;;;;;5.00;4.50;;;7.10;94.90;;;;;;5051501;28;20220;-71
2022/04/10 03:46:11;;;;;;;6.83;5.40;;;7.50;95.10;;;;;;5053554;28;20538;-68
2022/04/10 03:48:37;;;;;;;7.03;4.83;;;7.40;95.10;;;;;;5053232;28;20185;-68
2022/04/10 03:51:03;;;;;;;7.97;5.13;;;7.60;95.20;;;;;;5052167;28;20191;-68
2022/04/10 03:53:28;;;;;;;7.03;5.50;;;7.40;95.10;;;;;;5052106;28;20264;-68
2022/04/10 03:55:54;;;;;;;6.03;4.80;;;7.40;95.10;;;;;;5051454;28;20180;-69
2022/04/10 03:58:20;;;;;;;7.97;5.10;;;7.40;95.10;;;;;;5052608;28;20203;-68
2022/04/10 04:00:47;;;;;;;5.70;5.10;;;7.30;95.00;;;;;;5052327;28;20196;-71
2022/04/10 04:03:13;;;;;;;8.10;5.50;;;7.30;95.00;;;;;;5052414;28;20726;-68
2022/04/10 04:05:39;;;;;;;8.50;4.93;;;7.40;95.10;;;;;;5052913;28;20416;-68
2022/04/10 04:08:05;;;;;;;7.00;5.40;;;7.30;95.10;;;;;;5050858;28;20419;-68
2022/04/10 04:10:32;;;;;;;6.07;5.47;;;7.50;95.20;;;;;;5052531;28;20185;-68
2022/04/10 04:12:58;;;;;;;10.53;5.63;;;7.30;95.10;;;;;;5051437;28;20950;-68
2022/04/10 04:15:24;;;;;;;6.20;5.30;;;7.20;95.00;;;;;;5051300;28;20461;-68
2022/04/10 04:17:50;;;;;;;7.40;5.63;;;7.30;95.10;;;;;;5051491;28;20799;-69
2022/04/10 04:20:15;;;;;;;8.63;6.00;;;6.90;95.10;;;;;;5051194;28;20219;-68
2022/04/10 04:22:42;;;;;;;5.37;4.87;;;7.30;95.50;;;;;;5051207;28;20184;-68
2022/04/10 04:25:08;;;;;;;6.07;4.97;;;7.30;95.50;;;;;;5051195;28;20926;-68
2022/04/10 04:27:33;;;;;;;5.33;4.83;;;7.50;95.60;;;;;;5051631;28;20192;-68
2022/04/10 04:30:01;;;;;;;6.27;5.07;;;7.30;95.70;;;;;;5051422;28;20532;-68
2022/04/10 04:32:27;;;;;;;10.40;5.30;;;7.40;95.60;;;;;;5052275;28;20180;-68
2022/04/10 04:34:53;;;;;;;7.33;5.13;;;7.40;95.40;;;;;;5051341;28;20445;-69
2022/04/10 04:37:18;;;;;;;6.93;5.40;;;7.00;95.20;;;;;;5052349;28;20418;-69
2022/04/10 04:39:44;;;;;;;9.53;5.33;;;7.40;95.30;;;;;;5052347;28;20187;-68
2022/04/10 04:42:10;;;;;;;6.13;5.17;;;7.50;95.30;;;;;;5051600;28;20205;-68
2022/04/10 04:44:36;;;;;;;6.00;5.40;;;7.50;95.10;;;;;;5052144;28;20794;-68
2022/04/10 04:47:01;;;;;;;6.33;5.70;;;7.40;95.00;;;;;;5051382;28;20208;-68
2022/04/10 04:49:27;;;;;;;6.77;5.50;;;7.50;95.20;;;;;;5052207;28;20197;-68
2022/04/10 04:51:53;;;;;;;6.73;5.83;;;7.40;95.00;;;;;;5051385;28;20179;-69
2022/04/10 04:54:19;;;;;;;7.13;5.93;;;7.20;94.80;;;;;;5051948;28;20570;-69
2022/04/10 04:56:45;;;;;;;5.97;5.10;;;7.40;94.80;;;;;;5052247;28;20412;-68
2022/04/10 04:59:14;;;;;;;9.80;5.80;;;7.40;94.90;;;;;;5033256;28;20421;-68
2022/04/10 05:01:41;;;;;;;9.80;5.17;;;7.30;95.10;;;;;;5050602;28;20719;-68
2022/04/10 05:04:10;;;;;;;6.17;5.47;;;7.50;95.20;;;;;;5050431;28;20549;-68
2022/04/10 05:06:37;;;;;;;8.77;5.60;;;7.50;95.10;;;;;;5049069;28;20434;-69
2022/04/10 05:09:04;;;;;;;9.30;6.50;;;7.40;95.00;;;;;;5049165;28;20435;-69
2022/04/10 05:11:29;;;;;;;10.57;6.30;;;7.40;95.10;;;;;;5050089;28;20449;-68
2022/04/10 05:13:55;;;;;;;7.33;5.43;;;7.10;94.90;;;;;;5050761;28;20427;-68
2022/04/10 05:16:22;;;;;;;11.40;6.17;;;7.30;95.10;;;;;;5052194;28;20211;-68
2022/04/10 05:18:48;;;;;;;7.17;5.60;;;7.30;95.10;;;;;;5052097;28;20171;-68
2022/04/10 05:21:15;;;;;;;6.93;6.10;;;7.30;95.20;;;;;;5032718;28;20544;-68
2022/04/10 05:23:40;;;;;;;8.83;6.33;;;7.30;95.30;;;;;;5052011;28;20511;-68
2022/04/10 05:26:06;;;;;;;9.90;6.30;;;7.30;95.10;;;;;;5055052;28;20523;-68
2022/04/10 05:28:34;;;;;;;6.43;5.83;;;7.40;95.20;;;;;;5056387;28;20532;-68
2022/04/10 05:31:01;;;;;;;6.70;5.77;;;7.30;95.20;;;;;;5055112;28;20867;-68
2022/04/10 05:33:27;;;;;;;8.70;6.33;;;7.40;95.40;;;;;;5055759;28;20426;-68
2022/04/10 05:35:55;;;;;;;7.67;6.57;;;7.40;95.20;;;;;;5060341;28;20410;-70
2022/04/10 05:38:22;;;;;;;8.00;5.80;;;7.10;95.00;;;;;;5071287;28;20477;-68
2022/04/10 05:40:52;;;;;;;7.70;5.83;;;7.40;95.30;;;;;;5054748;28;20407;-68
2022/04/10 05:43:22;;;;;;;9.70;6.60;;;7.40;95.00;;;;;;5055488;28;20535;-68
2022/04/10 05:45:49;;;;;;;10.33;5.87;;;7.50;95.10;;;;;;5037837;28;20925;-68
2022/04/10 05:48:15;;;;;;;7.90;6.20;;;7.60;95.20;;;;;;5054015;28;20422;-68
2022/04/10 05:50:41;;;;;;;5.67;5.17;;;7.50;95.00;;;;;;5054122;28;20776;-69
2022/04/10 05:53:07;;;;;;;6.80;5.63;;;7.60;95.10;;;;;;5054078;28;20418;-69
2022/04/10 05:55:33;;;;;;;6.83;5.87;;;7.50;95.10;;;;;;5055354;28;20902;-68
2022/04/10 05:57:59;;;;;;;9.70;6.20;;;7.30;95.10;;;;;;5053870;28;20185;-68
2022/04/10 06:00:25;;;;;;;6.77;6.17;;;7.70;95.10;;;;;;5036475;28;20185;-68
2022/04/10 06:02:51;;;;;;;7.43;6.00;;;7.60;95.10;;;;;;5054834;28;20176;-69
2022/04/10 06:05:21;;;;;;;6.30;5.53;;;7.60;95.00;;;;;;5054368;28;20428;-68
2022/04/10 06:07:47;;;;;;;10.13;6.47;;;7.60;95.00;;;;;;5054481;28;20411;-68
2022/04/10 06:10:14;;;;;;;12.90;7.07;;;7.10;94.80;;;;;;5054213;28;20444;-68
2022/04/10 06:12:39;;;;;;;7.03;6.00;;;7.60;95.30;;;;;;5060107;28;20418;-68
2022/04/10 06:15:05;;;;;;;6.50;5.73;;;7.60;95.00;;;;;;5053653;28;20419;-68
2022/04/10 06:17:31;;;;;;;6.30;5.70;;;7.60;95.30;;;;;;5055173;28;20178;-68
2022/04/10 06:19:58;;;;;;;7.20;6.30;;;7.60;95.20;;;;;;5053873;28;20477;-70
2022/04/10 06:22:24;;;;;;;12.37;6.10;;;7.70;95.20;;;;;;5054659;28;20500;-67
2022/04/10 06:24:51;;;;;;;7.43;5.90;;;7.60;95.40;;;;;;5053886;28;20493;-67
2022/04/10 06:27:16;;;;;;;8.37;5.53;;;7.70;95.60;;;;;;5054157;28;20656;-68
2022/04/10 06:29:42;;;;;;;9.27;6.40;;;7.70;95.60;;;;;;5054706;28;20503;-68
2022/04/10 06:32:08;;;;;;;10.23;5.80;;;7.80;95.60;;;;;;5054231;28;20415;-68
2022/04/10 06:34:34;;;;;;;6.33;5.73;;;7.30;95.30;;;;;;5054526;28;20178;-68
2022/04/10 06:37:00;;;;;;;12.40;7.90;;;7.70;95.40;;;;;;5054048;28;20473;-68
2022/04/10 06:39:25;;;;;;;11.60;6.27;;;7.90;95.50;;;;;;5054784;28;20704;-67
2022/04/10 06:41:51;;;;;;;7.67;6.87;;;7.80;95.40;;;;;;5052975;28;20181;-67
2022/04/10 06:44:17;;;;;;;7.33;5.93;;;7.80;95.70;;;;;;5053731;28;20471;-68
2022/04/10 06:46:43;;;;;;;9.10;6.10;;;7.40;95.20;;;;;;5054234;28;20430;-70
2022/04/10 06:49:12;;;;;;;8.17;7.30;;;7.60;97.00;;;;;;5054267;28;20409;-69
2022/04/10 06:51:38;;;;;;;7.60;6.70;;;8.40;96.70;;;;;;5054634;28;20416;-70
2022/04/10 06:54:04;;;;;;;7.90;7.20;;;9.00;98.10;;;;;;5053832;28;20432;-70
2022/04/10 06:56:30;;;;;;;10.93;7.23;;;9.50;97.60;;;;;;5053506;28;20416;-70
2022/04/10 06:58:56;;;;;;;8.43;6.23;;;10.00;94.90;;;;;;5054114;28;20401;-71
2022/04/10 07:01:21;;;;;;;6.80;6.20;;;10.40;93.50;;;;;;5054329;28;20448;-70
2022/04/10 07:03:47;;;;;;;7.70;7.00;;;10.70;93.40;;;;;;5053171;28;20216;-70
2022/04/10 07:06:13;;;;;;;9.00;6.67;;;11.10;92.50;;;;;;5052933;28;20184;-73
2022/04/10 07:08:39;;;;;;;10.07;6.73;;;11.30;91.40;;;;;;5054310;28;20171;-70
2022/04/10 07:11:05;;;;;;;9.33;8.43;;;11.60;90.00;;;;;;5053419;28;20189;-71
2022/04/10 07:13:31;;;;;;;12.83;9.63;;;11.80;88.10;;;;;;5053607;28;20933;-72
2022/04/10 07:15:57;;;;;;;8.90;8.00;;;11.90;90.90;;;;;;5054139;28;20411;-71
2022/04/10 07:18:22;;;;;;;9.07;8.27;;;12.10;89.70;;;;;;5053417;28;20226;-70
2022/04/10 07:20:48;;;;;;;8.93;6.20;;;12.30;88.20;;;;;;5052118;28;20943;-71
2022/04/10 07:25:59;;;;;;;7.27;6.63;;;12.50;86.40;;;;;;5050085;28;20184;-71
2022/04/10 07:28:25;;;;;;;9.73;6.70;;;12.70;85.90;;;;;;5034848;28;20450;-70
2022/04/10 07:30:51;;;;;;;6.93;6.27;;;12.80;84.90;;;;;;5052514;28;20409;-70
2022/04/10 07:33:17;;;;;;;8.20;7.40;;;12.80;83.30;;;;;;5052075;28;20413;-71
2022/04/10 07:35:43;;;;;;;6.07;5.47;;;12.80;83.70;;;;;;5052316;28;20178;-70
2022/04/10 07:38:12;;;;;;;6.43;5.80;;;12.90;83.80;;;;;;5052475;28;20182;-70
2022/04/10 07:40:38;;;;;;;5.93;5.17;;;13.00;81.80;;;;;;5054168;28;20425;-70
2022/04/10 07:43:04;;;;;;;6.90;6.17;;;13.10;83.70;;;;;;5053344;28;20433;-70
2022/04/10 07:48:15;;;;;;;9.03;5.23;;;13.10;77.50;;;;;;5032580;28;20438;-67
2022/04/10 07:50:41;;;;;;;6.07;4.67;;;12.80;76.50;;;;;;5048970;28;20499;-67
2022/04/10 07:53:07;;;;;;;5.70;5.13;;;12.50;76.50;;;;;;5058228;28;20445;-67
2022/04/10 07:55:33;;;;;;;6.93;5.60;;;12.20;76.80;;;;;;5068614;28;20419;-68
2022/04/10 07:57:59;;;;;;;10.77;4.63;;;11.80;79.40;;;;;;5053914;28;20412;-67
2022/04/10 08:00:25;;;;;;;7.20;4.90;;;11.60;81.50;;;;;;5053559;28;20746;-68
2022/04/10 08:02:52;;;;;;;6.27;4.83;;;11.30;81.70;;;;;;5052091;28;20424;-67
2022/04/10 08:05:19;;;;;;;5.30;4.47;;;11.20;81.70;;;;;;5052699;28;20534;-68
2022/04/10 08:07:46;;;;;;;5.13;4.63;;;11.10;83.10;;;;;;5052793;28;20937;-68
2022/04/10 08:10:13;;;;;;;5.57;4.13;;;10.90;83.50;;;;;;5031298;28;20503;-68
2022/04/10 08:12:39;;;;;;;5.82;4.80;;;10.80;83.90;;;;;;5038709;28;20777;-67
2022/04/10 08:15:06;;;;;;;20.07;13.80;;;10.80;83.50;;;;;;5052405;28;20545;-68
2022/04/10 08:17:32;;;;;;;8.97;4.40;;;10.70;84.30;;;;;;5053279;28;20410;-67
2022/04/10 08:19:59;;;;;;;20.47;14.90;;;10.60;86.00;;;;;;5052332;28;20438;-76
2022/04/10 08:22:28;;;;;;;12.17;8.40;;;10.50;84.90;;;;;;5052841;28;20900;-67
2022/04/10 08:24:54;;;;;;;5.20;3.90;;;10.60;87.60;;;;;;5052975;28;20556;-67
2022/04/10 08:27:20;;;;;;;6.53;3.40;;;10.50;87.70;;;;;;5052135;28;20520;-68
2022/04/10 08:29:46;;;;;;;5.77;3.60;;;10.50;85.00;;;;;;5052027;28;20423;-68
2022/04/10 08:32:12;;;;;;;5.10;3.47;;;10.10;86.20;;;;;;5042238;28;20756;-68
2022/04/10 08:34:38;;;;;;;3.80;3.50;;;10.50;86.50;;;;;;5051267;28;20421;-68
2022/04/10 08:37:06;;;;;;;8.23;3.70;;;10.60;86.40;;;;;;5052670;28;20427;-68
2022/04/10 08:39:33;;;;;;;8.87;3.63;;;10.70;87.50;;;;;;5041271;28;20179;-68
2022/04/10 08:42:04;;;;;;;4.60;3.40;;;10.80;86.10;;;;;;5050918;28;20425;-68
2022/04/10 08:44:31;;;;;;;10.23;3.77;;;10.80;85.30;;;;;;5063480;28;20895;-68
2022/04/10 08:46:59;;;;;;;8.80;4.87;;;10.70;84.10;;;;;;5063239;28;20462;-68
2022/04/10 08:49:31;;;;;;;3.70;3.30;;;10.60;83.10;;;;;;5050494;28;20427;-68
2022/04/10 08:51:58;;;;;;;7.43;3.80;;;10.60;83.70;;;;;;5052310;28;20403;-68
2022/04/10 08:54:27;;;;;;;8.87;4.07;;;10.40;83.50;;;;;;5051338;28;20528;-68
2022/04/10 08:56:54;;;;;;;5.60;3.40;;;10.40;84.60;;;;;;5051647;28;20417;-68
2022/04/10 08:59:21;;;;;;;3.70;3.50;;;10.50;85.20;;;;;;5050054;28;20488;-68
2022/04/10 09:01:52;;;;;;;4.83;3.60;;;10.40;85.10;;;;;;5052299;28;20420;-68
2022/04/10 09:04:20;;;;;;;4.53;3.40;;;10.50;84.10;;;;;;5051389;28;20463;-68
2022/04/10 09:07:02;;;;;;;4.20;3.80;;;10.50;86.20;;;;;;5052720;28;20419;-67
2022/04/10 09:09:29;;;;;;;6.20;4.27;;;10.70;85.80;;;;;;5052073;28;20422;-68
2022/04/10 09:11:56;;;;;;;4.30;3.50;;;10.70;84.80;;;;;;5051840;28;20433;-68
2022/04/10 09:14:34;;;;;;;6.23;4.50;;;10.80;82.00;;;;;;5051791;28;20435;-68
2022/04/10 09:17:14;;;;;;;3.90;3.60;;;10.70;83.40;;;;;;5051991;28;20449;-67
2022/04/10 09:19:44;;;;;;;4.70;3.80;;;10.80;82.50;;;;;;5051959;28;20449;-67
2022/04/10 09:22:37;;;;;;;5.10;4.60;;;10.80;82.40;;;;;;5050584;28;21033;-67
2022/04/10 09:25:08;;;;;;;4.63;4.07;;;11.00;82.90;;;;;;5051561;28;20461;-74
2022/04/10 09:27:39;;;;;;;6.17;4.33;;;11.10;81.90;;;;;;5051849;28;20502;-67
2022/04/10 09:30:07;;;;;;;5.27;3.63;;;11.30;81.00;;;;;;5050881;28;20425;-74
2022/04/10 09:32:47;;;;;;;8.47;6.20;;;11.50;81.40;;;;;;5050516;28;20443;-68
2022/04/10 09:35:21;;;;;;;4.90;3.70;;;11.70;79.40;;;;;;5050168;28;20880;-67
2022/04/10 09:37:57;;;;;;;40.87;36.17;;;11.80;77.70;;;;;;5032457;28;20873;-67
2022/04/10 09:40:23;;;;;;;25.30;18.33;;;11.80;77.40;;;;;;5045252;28;20524;-67
2022/04/10 09:42:50;;;;;;;28.90;19.20;;;11.80;76.70;;;;;;5051906;28;20211;-67
2022/04/10 09:45:34;;;;;;;5.10;4.70;;;11.70;76.50;;;;;;5050543;28;20467;-67
2022/04/10 09:48:24;;;;;;;6.67;4.30;;;11.70;74.80;;;;;;5052168;28;20422;-67
2022/04/10 09:50:56;;;;;;;5.63;3.90;;;11.60;75.80;;;;;;5051989;28;20453;-67
2022/04/10 09:53:22;;;;;;;9.33;5.40;;;11.40;75.00;;;;;;5051483;28;20403;-67
2022/04/10 09:55:55;;;;;;;4.30;4.00;;;11.30;75.40;;;;;;5052135;28;20824;-67
2022/04/10 09:58:22;;;;;;;5.17;4.10;;;11.20;78.00;;;;;;5051215;28;20428;-67
2022/04/10 10:00:51;;;;;;;3.80;3.50;;;11.10;78.80;;;;;;5048691;28;20454;-70
2022/04/10 10:03:18;;;;;;;3.67;3.30;;;11.10;76.30;;;;;;5048068;28;20420;-67
2022/04/10 10:05:44;;;;;;;5.20;3.90;;;10.90;76.90;;;;;;5049362;28;20453;-68
2022/04/10 10:08:09;;;;;;;4.00;3.70;;;10.70;80.50;;;;;;5050466;28;20480;-68
2022/04/10 10:10:37;;;;;;;6.30;3.80;;;10.40;84.50;;;;;;5052805;28;20777;-68
2022/04/10 10:13:05;;;;;;;4.43;4.10;;;10.60;85.20;;;;;;5053124;28;20184;-68
2022/04/10 10:15:42;;;;;;;5.80;4.23;;;10.60;88.50;;;;;;5052129;28;20455;-69
2022/04/10 10:18:12;;;;;;;4.83;4.53;;;10.50;87.70;;;;;;5040204;28;20410;-68
2022/04/10 10:20:42;;;;;;;88.23;58.87;;;10.60;87.60;;;;;;5044986;28;20495;-67
2022/04/10 10:23:10;;;;;;;25.60;19.63;;;10.60;88.20;;;;;;5039754;28;20430;-68
2022/04/10 10:25:58;;;;;;;11.60;9.60;;;10.60;88.00;;;;;;5053580;28;20520;-68
2022/04/10 10:28:43;;;;;;;5.77;5.33;;;10.60;89.20;;;;;;5054606;28;20423;-68
2022/04/10 10:31:14;;;;;;;4.93;4.53;;;10.70;89.70;;;;;;5053409;28;20921;-68
2022/04/10 10:34:08;;;;;;;4.23;3.80;;;10.90;88.30;;;;;;5055179;28;20426;-69
2022/04/10 10:36:34;;;;;;;5.10;4.57;;;11.20;90.40;;;;;;5053983;28;20432;-68
2022/04/10 10:39:00;;;;;;;5.33;4.00;;;11.60;88.50;;;;;;5055105;28;20420;-67
2022/04/10 10:41:26;;;;;;;6.40;4.40;;;12.00;87.40;;;;;;5054081;28;20721;-67
2022/04/10 10:43:54;;;;;;;4.03;3.73;;;12.40;82.80;;;;;;5053299;28;20463;-67
2022/04/10 10:46:22;;;;;;;4.57;4.17;;;12.60;83.10;;;;;;5053713;28;20431;-68
2022/04/10 10:48:50;;;;;;;7.97;5.10;;;12.80;79.00;;;;;;5036724;28;20442;-68
2022/04/10 10:51:16;;;;;;;3.90;3.70;;;13.00;79.20;;;;;;5052817;28;20484;-68
2022/04/10 10:53:45;;;;;;;4.63;4.20;;;13.10;77.10;;;;;;5054447;28;20433;-68
2022/04/10 10:56:34;;;;;;;4.43;4.03;;;13.00;74.90;;;;;;5052657;28;20522;-67
2022/04/10 10:59:22;;;;;;;4.23;3.87;;;12.80;70.70;;;;;;5053909;28;20926;-68
2022/04/10 11:02:13;;;;;;;5.27;3.70;;;12.90;74.50;;;;;;5054597;28;20562;-68
2022/04/10 11:04:45;;;;;;;3.50;3.17;;;13.00;74.50;;;;;;5054934;28;20492;-68
2022/04/10 11:07:12;;;;;;;3.30;3.00;;;13.20;74.40;;;;;;5053773;28;20427;-68
2022/04/10 11:09:49;;;;;;;3.50;3.20;;;13.40;71.80;;;;;;5054649;28;20743;-68
2022/04/10 11:12:15;;;;;;;3.17;2.97;;;13.70;73.00;;;;;;5053941;28;20434;-68
2022/04/10 11:14:44;;;;;;;3.60;3.30;;;13.70;67.80;;;;;;5054682;28;20435;-67
2022/04/10 11:17:19;;;;;;;5.30;3.67;;;13.50;68.90;;;;;;5052479;28;20447;-67
2022/04/10 11:19:47;;;;;;;3.03;2.80;;;13.40;68.90;;;;;;5053043;28;20422;-67
2022/04/10 11:22:18;;;;;;;3.33;3.00;;;13.40;70.50;;;;;;5052133;28;20439;-67
2022/04/10 11:24:45;;;;;;;18.63;14.83;;;13.60;74.80;;;;;;5053388;28;20459;-67
2022/04/10 11:27:14;;;;;;;128.20;76.37;;;13.70;69.00;;;;;;5052570;28;20426;-68
2022/04/10 11:30:01;;;;;;;4.90;4.10;;;13.70;66.20;;;;;;5051300;28;20852;-68
2022/04/10 11:32:43;;;;;;;3.53;2.97;;;13.60;64.80;;;;;;5052832;28;20422;-67
2022/04/10 11:35:32;;;;;;;3.20;3.00;;;13.50;65.40;;;;;;5053411;28;20763;-76
2022/04/10 11:38:06;;;;;;;3.27;3.00;;;13.50;66.60;;;;;;5054018;28;20407;-66
2022/04/10 11:40:34;;;;;;;3.43;2.70;;;13.30;64.90;;;;;;5052785;28;21022;-66
2022/04/10 11:43:02;;;;;;;2.40;2.30;;;13.20;65.40;;;;;;5053738;28;20498;-66
2022/04/10 11:45:30;;;;;;;2.73;2.53;;;13.10;64.50;;;;;;5052532;28;20999;-66
2022/04/10 11:47:57;;;;;;;3.10;2.90;;;13.20;63.70;;;;;;5053837;28;20459;-66
2022/04/10 11:50:25;;;;;;;3.00;2.90;;;13.20;64.30;;;;;;5052713;28;20427;-66
2022/04/10 11:53:03;;;;;;;4.50;3.20;;;13.40;64.70;;;;;;5052242;28;20452;-67
2022/04/10 11:55:30;;;;;;;3.10;2.90;;;13.70;69.50;;;;;;5046692;28;20530;-66
2022/04/10 11:57:56;;;;;;;3.40;3.20;;;13.90;66.10;;;;;;5052530;28;20423;-66
2022/04/10 12:00:22;;;;;;;2.93;2.70;;;13.80;61.80;;;;;;5047599;28;20435;-66
2022/04/10 12:02:53;;;;;;;3.53;3.00;;;13.80;61.50;;;;;;5053414;28;20510;-66
2022/04/10 12:05:30;;;;;;;3.23;2.80;;;13.80;62.90;;;;;;5052247;28;20464;-66
2022/04/10 12:08:00;;;;;;;2.97;2.70;;;13.90;62.80;;;;;;5053152;28;20408;-66
2022/04/10 12:10:26;;;;;;;2.97;2.70;;;13.80;62.00;;;;;;5051531;28;20426;-66
2022/04/10 12:12:53;;;;;;;2.70;2.50;;;13.60;62.00;;;;;;5052752;28;20435;-66
2022/04/10 12:15:19;;;;;;;2.80;2.63;;;13.30;61.50;;;;;;5051116;28;20186;-67
2022/04/10 12:18:03;;;;;;;2.70;2.50;;;13.20;61.60;;;;;;5050688;28;20426;-66
2022/04/10 12:20:28;;;;;;;2.83;2.63;;;13.20;61.10;;;;;;5052431;28;20458;-66
2022/04/10 12:22:54;;;;;;;2.40;2.20;;;13.30;63.90;;;;;;5063922;28;20426;-66
2022/04/10 12:25:20;;;;;;;2.20;2.10;;;13.40;67.50;;;;;;5052225;28;20212;-67
2022/04/10 12:27:49;;;;;;;2.33;2.10;;;13.70;67.50;;;;;;5052585;28;20191;-66
2022/04/10 12:30:17;;;;;;;2.60;2.50;;;13.80;62.60;;;;;;5052229;28;20486;-74
2022/04/10 12:32:43;;;;;;;3.67;3.37;;;13.80;62.30;;;;;;5052147;28;20434;-67
2022/04/10 12:35:12;;;;;;;2.70;2.60;;;13.80;60.40;;;;;;5052100;28;20435;-66
2022/04/10 12:37:46;;;;;;;2.47;2.37;;;13.70;60.60;;;;;;5051531;28;20419;-67
2022/04/10 12:40:12;;;;;;;114.93;73.43;;;13.60;60.20;;;;;;5052071;28;20427;-66
2022/04/10 12:42:40;;;;;;;53.00;38.77;;;13.40;62.20;;;;;;5051593;28;20495;-67
2022/04/10 12:45:10;;;;;;;2.90;2.70;;;13.30;61.80;;;;;;5052211;28;20801;-66
2022/04/10 12:47:41;;;;;;;2.70;2.50;;;13.20;59.80;;;;;;5051533;28;21116;-67
2022/04/10 12:50:09;;;;;;;2.30;2.20;;;13.20;61.50;;;;;;5034399;28;20428;-66
2022/04/10 12:52:39;;;;;;;2.57;2.03;;;13.20;60.40;;;;;;5050869;28;20435;-66
2022/04/10 12:55:21;;;;;;;2.07;1.97;;;13.30;60.60;;;;;;5051296;28;20422;-66
2022/04/10 12:57:59;;;;;;;2.70;2.60;;;13.50;63.30;;;;;;5051972;28;20443;-66
2022/04/10 13:00:37;;;;;;;4.10;3.70;;;13.60;61.00;;;;;;5049904;28;20434;-66